createdAt,value
2018-07-24T00:00:19.998Z,5.60
2018-07-24T00:02:24.496Z,5.13
2018-07-24T00:04:28.926Z,4.47
2018-07-24T00:06:33.387Z,7.20
2018-07-24T00:08:37.843Z,4.83
2018-07-24T00:10:42.288Z,4.70
2018-07-24T00:12:46.776Z,4.80
2018-07-24T00:14:51.197Z,4.40
2018-07-24T00:16:55.726Z,4.40
2018-07-24T00:19:00.153Z,4.97
2018-07-24T00:21:04.666Z,5.33
2018-07-24T00:23:09.369Z,4.63
2018-07-24T00:25:13.826Z,4.63
2018-07-24T00:27:18.311Z,4.47
2018-07-24T00:29:22.743Z,4.20
2018-07-24T00:31:27.291Z,4.80
2018-07-24T00:33:31.601Z,4.73
2018-07-24T00:35:36.022Z,4.70
2018-07-24T00:37:40.501Z,4.90
2018-07-24T00:39:44.943Z,5.07
2018-07-24T00:41:49.367Z,4.43
2018-07-24T00:43:53.822Z,4.63
2018-07-24T00:45:58.578Z,4.70
2018-07-24T00:48:03.088Z,5.30
2018-07-24T00:50:07.576Z,5.57
2018-07-24T00:52:12.075Z,5.10
2018-07-24T00:54:16.555Z,5.63
2018-07-24T00:56:20.994Z,4.47
2018-07-24T00:58:25.438Z,4.83
2018-07-24T01:00:32.770Z,4.80
2018-07-24T01:02:40.300Z,4.93
2018-07-24T01:04:48.122Z,4.57
2018-07-24T01:06:55.339Z,4.70
2018-07-24T01:09:01.990Z,5.10
2018-07-24T01:11:10.179Z,4.53
2018-07-24T01:13:17.391Z,6.13
2018-07-24T01:15:25.987Z,6.60
2018-07-24T01:17:33.668Z,5.87
2018-07-24T01:19:39.927Z,5.00
2018-07-24T01:21:45.770Z,5.10
2018-07-24T01:23:51.386Z,5.37
2018-07-24T01:25:58.634Z,4.77
2018-07-24T01:28:07.038Z,5.53
2018-07-24T01:30:15.017Z,4.60
2018-07-24T01:32:23.485Z,5.20
2018-07-24T01:34:30.542Z,4.83
2018-07-24T01:36:36.294Z,4.63
2018-07-24T01:38:42.729Z,4.53
2018-07-24T01:40:49.330Z,8.23
2018-07-24T01:42:55.261Z,5.60
2018-07-24T01:45:04.841Z,6.73
2018-07-24T01:47:10.273Z,5.03
2018-07-24T01:49:18.659Z,4.63
2018-07-24T01:51:25.535Z,5.00
2018-07-24T01:53:31.997Z,4.77
2018-07-24T01:55:40.787Z,5.07
2018-07-24T01:57:46.515Z,4.73
2018-07-24T01:59:52.101Z,4.60
2018-07-24T02:02:00.838Z,5.10
2018-07-24T02:04:09.170Z,4.93
2018-07-24T02:06:16.806Z,4.97
2018-07-24T02:08:23.150Z,4.53
2018-07-24T02:10:30.932Z,7.00
2018-07-24T02:12:38.584Z,4.93
2018-07-24T02:14:47.016Z,4.93
2018-07-24T02:16:53.469Z,5.57
2018-07-24T02:19:00.084Z,4.93
2018-07-24T02:21:04.877Z,4.73
2018-07-24T02:23:09.421Z,5.20
2018-07-24T02:25:13.849Z,6.00
2018-07-24T02:27:18.330Z,5.47
2018-07-24T02:29:22.589Z,5.17
2018-07-24T02:31:26.990Z,5.33
2018-07-24T02:33:31.412Z,4.80
2018-07-24T02:35:35.913Z,5.90
2018-07-24T02:37:40.443Z,4.97
2018-07-24T02:39:44.967Z,5.17
2018-07-24T02:41:49.704Z,4.73
2018-07-24T02:43:54.143Z,4.90
2018-07-24T02:45:58.618Z,4.67
2018-07-24T02:48:03.104Z,4.77
2018-07-24T02:50:07.561Z,5.03
2018-07-24T02:52:12.067Z,5.13
2018-07-24T02:54:16.602Z,4.57
2018-07-24T02:56:21.039Z,4.73
2018-07-24T02:58:25.469Z,4.90
2018-07-24T03:00:29.935Z,5.17
2018-07-24T03:02:34.370Z,4.67
2018-07-24T03:04:38.491Z,4.40
2018-07-24T03:06:42.935Z,4.97
2018-07-24T03:08:47.401Z,4.63
2018-07-24T03:10:51.937Z,5.13
2018-07-24T03:12:56.418Z,5.20
2018-07-24T03:15:00.851Z,5.60
2018-07-24T03:17:05.908Z,5.30
2018-07-24T03:19:10.326Z,4.80
2018-07-24T03:21:14.767Z,5.27
2018-07-24T03:23:19.163Z,5.23
2018-07-24T03:25:23.546Z,5.10
2018-07-24T03:27:28.024Z,5.03
2018-07-24T03:29:32.458Z,4.80
2018-07-24T03:31:36.858Z,5.00
2018-07-24T03:33:41.247Z,4.87
2018-07-24T03:35:45.383Z,4.83
2018-07-24T03:37:49.920Z,4.90
2018-07-24T03:39:54.351Z,5.60
2018-07-24T03:41:58.782Z,5.10
2018-07-24T03:44:03.896Z,5.57
2018-07-24T03:46:08.344Z,5.67
2018-07-24T03:48:12.926Z,5.30
2018-07-24T03:50:17.338Z,5.50
2018-07-24T03:52:22.722Z,5.27
2018-07-24T03:54:27.159Z,5.43
2018-07-24T03:56:31.592Z,5.37
2018-07-24T03:58:36.033Z,5.13
2018-07-24T04:00:44.181Z,5.23
2018-07-24T04:02:52.859Z,4.90
2018-07-24T04:05:00.225Z,5.50
2018-07-24T04:07:07.136Z,4.77
2018-07-24T04:09:13.722Z,5.33
2018-07-24T04:11:19.279Z,5.73
2018-07-24T04:13:25.899Z,4.97
2018-07-24T04:15:34.274Z,5.40
2018-07-24T04:17:41.391Z,5.33
2018-07-24T04:19:48.810Z,5.83
2018-07-24T04:21:54.054Z,5.30
2018-07-24T04:23:58.614Z,4.97
2018-07-24T04:26:03.101Z,5.27
2018-07-24T04:28:07.567Z,5.37
2018-07-24T04:30:12.079Z,5.43
2018-07-24T04:32:16.511Z,5.40
2018-07-24T04:34:20.641Z,11.23
2018-07-24T04:36:25.067Z,9.23
2018-07-24T04:38:29.477Z,5.27
2018-07-24T04:40:33.931Z,5.23
2018-07-24T04:42:38.373Z,5.90
2018-07-24T04:44:42.867Z,7.80
2018-07-24T04:46:47.309Z,6.23
2018-07-24T04:48:52.116Z,5.33
2018-07-24T04:50:56.566Z,5.70
2018-07-24T04:53:00.995Z,5.27
2018-07-24T04:55:05.645Z,5.90
2018-07-24T04:57:10.119Z,5.70
2018-07-24T04:59:14.591Z,6.67
2018-07-24T05:01:19.039Z,5.90
2018-07-24T05:03:23.530Z,5.93
2018-07-24T05:05:28.122Z,6.67
2018-07-24T05:07:32.655Z,6.23
2018-07-24T05:09:37.099Z,6.00
2018-07-24T05:11:41.547Z,6.27
2018-07-24T05:13:46.046Z,7.90
2018-07-24T05:15:50.188Z,6.23
2018-07-24T05:17:54.911Z,5.90
2018-07-24T05:19:59.694Z,6.47
2018-07-24T05:22:04.181Z,6.57
2018-07-24T05:24:09.099Z,6.30
2018-07-24T05:26:13.567Z,7.00
2018-07-24T05:28:18.047Z,6.53
2018-07-24T05:30:24.946Z,6.60
2018-07-24T05:32:29.478Z,6.87
2018-07-24T05:34:33.923Z,7.27
2018-07-24T05:36:38.910Z,7.53
2018-07-24T05:38:43.348Z,7.60
2018-07-24T05:40:47.868Z,7.27
2018-07-24T05:42:52.482Z,8.50
2018-07-24T05:44:56.902Z,6.50
2018-07-24T05:47:01.007Z,7.77
2018-07-24T05:49:05.902Z,7.97
2018-07-24T05:51:10.369Z,7.73
2018-07-24T05:53:14.846Z,6.40
2018-07-24T05:55:19.300Z,8.27
2018-07-24T05:57:24.067Z,7.23
2018-07-24T05:59:28.488Z,7.53
2018-07-24T06:01:32.650Z,6.90
2018-07-24T06:03:39.318Z,7.20
2018-07-24T06:05:43.790Z,7.47
2018-07-24T06:07:48.202Z,7.60
2018-07-24T06:09:52.718Z,6.97
2018-07-24T06:11:56.952Z,6.70
2018-07-24T06:14:01.357Z,8.27
2018-07-24T06:16:05.980Z,6.93
2018-07-24T06:18:10.615Z,6.93
2018-07-24T06:20:15.129Z,7.97
2018-07-24T06:22:19.621Z,6.47
2018-07-24T06:24:24.139Z,6.80
2018-07-24T06:26:28.602Z,6.77
2018-07-24T06:28:33.042Z,6.27
2018-07-24T06:30:37.731Z,6.40
2018-07-24T06:32:42.254Z,6.67
2018-07-24T06:34:46.683Z,6.43
2018-07-24T06:36:51.399Z,7.10
2018-07-24T06:38:55.964Z,5.97
2018-07-24T06:41:00.415Z,6.40
2018-07-24T06:43:04.871Z,6.27
2018-07-24T06:45:09.372Z,5.80
2018-07-24T06:47:13.666Z,7.23
2018-07-24T06:49:18.571Z,6.47
2018-07-24T06:51:23.105Z,5.43
2018-07-24T06:53:27.503Z,6.17
2018-07-24T06:55:32.083Z,5.57
2018-07-24T06:57:37.071Z,6.37
2018-07-24T06:59:41.505Z,6.97
2018-07-24T07:01:45.974Z,5.67
2018-07-24T07:03:50.398Z,6.10
2018-07-24T07:05:54.850Z,5.30
2018-07-24T07:07:59.310Z,8.03
2018-07-24T07:10:03.503Z,6.23
2018-07-24T07:12:07.989Z,5.27
2018-07-24T07:14:12.506Z,4.90
2018-07-24T07:16:17.716Z,7.73
2018-07-24T07:18:24.294Z,5.13
2018-07-24T07:20:30.830Z,4.87
2018-07-24T07:22:35.302Z,4.63
2018-07-24T07:24:39.788Z,4.77
2018-07-24T07:26:44.478Z,4.97
2018-07-24T07:28:48.914Z,5.00
2018-07-24T07:30:53.426Z,4.73
2018-07-24T07:32:57.921Z,4.67
2018-07-24T07:35:02.367Z,4.73
2018-07-24T07:37:06.855Z,6.10
2018-07-24T07:39:14.881Z,5.28
2018-07-24T07:41:23.950Z,4.93
2018-07-24T07:43:28.455Z,4.53
2018-07-24T07:45:32.890Z,4.30
2018-07-24T07:47:37.514Z,5.00
2018-07-24T07:49:41.678Z,4.45
2018-07-24T07:51:46.151Z,6.63
2018-07-24T07:53:50.603Z,4.97
2018-07-24T07:55:55.047Z,4.53
2018-07-24T07:57:59.521Z,4.75
2018-07-24T08:00:04.183Z,5.12
2018-07-24T08:02:12.437Z,4.72
2018-07-24T08:04:16.982Z,3.42
2018-07-24T08:06:21.351Z,4.62
2018-07-24T08:08:25.896Z,3.17
2018-07-24T08:10:30.386Z,3.70
2018-07-24T08:12:35.339Z,3.90
2018-07-24T08:14:39.816Z,3.80
2018-07-24T08:16:44.267Z,4.08
2018-07-24T08:18:48.738Z,2.98
2018-07-24T08:20:53.215Z,2.90
2018-07-24T08:22:57.702Z,3.52
2018-07-24T08:25:03.035Z,3.30
2018-07-24T08:27:07.541Z,6.05
2018-07-24T08:29:12.303Z,2.80
2018-07-24T08:31:16.783Z,3.35
2018-07-24T08:33:21.217Z,2.77
2018-07-24T08:35:25.724Z,2.98
2018-07-24T08:37:30.198Z,3.77
2018-07-24T08:39:34.659Z,2.90
2018-07-24T08:41:39.137Z,2.92
2018-07-24T08:43:43.567Z,3.05
2018-07-24T08:45:47.967Z,2.45
2018-07-24T08:47:52.555Z,2.60
2018-07-24T08:49:56.822Z,5.12
2018-07-24T08:52:01.330Z,3.02
2018-07-24T08:54:05.905Z,3.17
2018-07-24T08:56:10.270Z,2.77
2018-07-24T08:58:15.154Z,2.85
2018-07-24T09:00:19.646Z,3.20
2018-07-24T09:02:24.114Z,3.20
2018-07-24T09:04:28.578Z,3.33
2018-07-24T09:06:32.991Z,3.05
2018-07-24T09:08:37.438Z,2.90
2018-07-24T09:10:41.929Z,3.25
2018-07-24T09:12:46.402Z,3.70
2018-07-24T09:14:50.854Z,3.22
2018-07-24T09:16:55.524Z,4.08
2018-07-24T09:19:00.025Z,2.60
2018-07-24T09:21:04.784Z,2.83
2018-07-24T09:23:11.680Z,2.87
2018-07-24T09:25:16.142Z,2.58
2018-07-24T09:27:20.622Z,3.20
2018-07-24T09:29:27.449Z,2.65
2018-07-24T09:31:31.798Z,2.90
2018-07-24T09:33:36.333Z,2.90
2018-07-24T09:35:40.779Z,2.70
2018-07-24T09:37:45.258Z,2.80
2018-07-24T09:39:49.723Z,3.45
2018-07-24T09:41:54.142Z,3.70
2018-07-24T09:43:58.616Z,2.85
2018-07-24T09:46:03.027Z,3.22
2018-07-24T09:48:07.197Z,2.60
2018-07-24T09:50:11.686Z,2.62
2018-07-24T09:52:16.186Z,2.30
2018-07-24T09:54:20.618Z,2.70
2018-07-24T09:56:25.128Z,2.35
2018-07-24T09:58:29.253Z,2.85
2018-07-24T10:00:38.834Z,3.00
2018-07-24T10:02:43.358Z,2.90
2018-07-24T10:04:47.876Z,2.60
2018-07-24T10:06:52.844Z,2.83
2018-07-24T10:08:57.362Z,2.40
2018-07-24T10:11:01.966Z,5.47
2018-07-24T10:13:06.732Z,3.22
2018-07-24T10:15:11.075Z,2.30
2018-07-24T10:17:15.530Z,2.80
2018-07-24T10:19:19.617Z,2.47
2018-07-24T10:21:24.051Z,2.58
2018-07-24T10:23:28.522Z,2.60
2018-07-24T10:25:32.923Z,2.60
2018-07-24T10:27:37.363Z,3.52
2018-07-24T10:29:42.038Z,2.80
2018-07-24T10:31:46.611Z,3.35
2018-07-24T10:33:51.057Z,2.50
2018-07-24T10:35:55.791Z,2.37
2018-07-24T10:38:00.233Z,5.40
2018-07-24T10:40:05.052Z,2.60
2018-07-24T10:42:09.596Z,3.35
2018-07-24T10:44:14.251Z,2.62
2018-07-24T10:46:18.730Z,4.50
2018-07-24T10:48:23.290Z,2.62
2018-07-24T10:50:27.748Z,2.33
2018-07-24T10:52:31.921Z,2.70
2018-07-24T10:54:36.403Z,2.67
2018-07-24T10:56:41.042Z,2.42
2018-07-24T10:58:45.520Z,3.27
2018-07-24T11:00:50.067Z,2.52
2018-07-24T11:02:54.608Z,6.20
2018-07-24T11:04:59.574Z,4.03
2018-07-24T11:07:04.176Z,2.40
2018-07-24T11:09:09.485Z,2.40
2018-07-24T11:11:14.062Z,2.20
2018-07-24T11:13:18.817Z,2.45
2018-07-24T11:15:23.278Z,2.50
2018-07-24T11:17:27.746Z,2.50
2018-07-24T11:19:32.310Z,2.42
2018-07-24T11:21:36.816Z,1.77
2018-07-24T11:23:41.367Z,2.77
2018-07-24T11:25:45.934Z,2.70
2018-07-24T11:27:50.417Z,2.27
2018-07-24T11:29:54.861Z,2.65
2018-07-24T11:31:59.134Z,2.27
2018-07-24T11:34:03.637Z,2.33
2018-07-24T11:36:08.541Z,2.23
2018-07-24T11:38:15.391Z,5.62
2018-07-24T11:40:19.820Z,2.10
2018-07-24T11:42:25.331Z,2.38
2018-07-24T11:44:30.292Z,2.60
2018-07-24T11:46:35.025Z,3.03
2018-07-24T11:48:39.402Z,2.22
2018-07-24T11:50:43.948Z,2.92
2018-07-24T11:52:48.396Z,2.20
2018-07-24T11:54:52.851Z,1.90
2018-07-24T11:56:57.290Z,3.05
2018-07-24T11:59:01.773Z,1.95
2018-07-24T12:01:06.287Z,3.25
2018-07-24T12:03:11.025Z,2.10
2018-07-24T12:05:15.467Z,2.20
2018-07-24T12:07:19.695Z,2.27
2018-07-24T12:09:24.221Z,3.12
2018-07-24T12:11:28.668Z,1.93
2018-07-24T12:13:32.846Z,2.35
2018-07-24T12:15:37.356Z,2.22
2018-07-24T12:17:41.886Z,3.58
2018-07-24T12:19:46.420Z,2.20
2018-07-24T12:21:50.914Z,3.17
2018-07-24T12:23:55.453Z,2.20
2018-07-24T12:25:59.934Z,2.22
2018-07-24T12:28:05.446Z,4.05
2018-07-24T12:30:10.063Z,1.80
2018-07-24T12:32:14.611Z,3.87
2018-07-24T12:34:19.970Z,1.75
2018-07-24T12:36:24.499Z,2.33
2018-07-24T12:38:28.946Z,2.27
2018-07-24T12:40:33.475Z,2.08
2018-07-24T12:42:38.226Z,2.25
2018-07-24T12:44:42.690Z,1.95
2018-07-24T12:46:47.260Z,1.90
2018-07-24T12:48:51.781Z,2.42
2018-07-24T12:50:56.250Z,2.73
2018-07-24T12:53:00.693Z,1.90
2018-07-24T12:55:05.209Z,1.95
2018-07-24T12:57:09.738Z,2.07
2018-07-24T12:59:15.951Z,1.90
2018-07-24T13:01:20.769Z,2.00
2018-07-24T13:03:26.461Z,2.27
2018-07-24T13:05:31.027Z,2.27
2018-07-24T13:07:36.771Z,1.90
2018-07-24T13:09:43.908Z,1.67
2018-07-24T13:11:48.505Z,2.00
2018-07-24T13:13:53.016Z,2.42
2018-07-24T13:15:57.459Z,2.27
2018-07-24T13:18:02.175Z,2.05
2018-07-24T13:20:06.768Z,3.93
2018-07-24T13:22:11.547Z,2.30
2018-07-24T13:24:16.522Z,3.57
2018-07-24T13:26:21.301Z,2.20
2018-07-24T13:28:25.974Z,3.10
2018-07-24T13:30:30.450Z,1.80
2018-07-24T13:32:35.046Z,1.75
2018-07-24T13:34:41.623Z,2.10
2018-07-24T13:36:46.231Z,1.92
2018-07-24T13:38:50.823Z,2.33
2018-07-24T13:40:55.448Z,1.77
2018-07-24T13:43:00.624Z,2.05
2018-07-24T13:45:05.765Z,2.02
2018-07-24T13:47:10.283Z,2.15
2018-07-24T13:49:15.502Z,1.90
2018-07-24T13:51:20.561Z,2.08
2018-07-24T13:53:25.029Z,1.85
2018-07-24T13:55:29.505Z,2.08
2018-07-24T13:57:34.143Z,2.25
2018-07-24T13:59:38.628Z,3.08
2018-07-24T14:01:43.118Z,1.87
2018-07-24T14:03:47.643Z,6.05
2018-07-24T14:05:52.281Z,2.47
2018-07-24T14:07:56.718Z,1.90
2018-07-24T14:10:01.215Z,2.17
2018-07-24T14:12:05.687Z,1.65
2018-07-24T14:14:10.528Z,1.92
2018-07-24T14:16:15.030Z,1.85
2018-07-24T14:18:19.467Z,1.95
2018-07-24T14:20:23.958Z,1.80
2018-07-24T14:22:28.558Z,2.42
2018-07-24T14:24:33.003Z,2.12
2018-07-24T14:26:37.507Z,2.20
2018-07-24T14:28:41.948Z,3.10
2018-07-24T14:30:46.586Z,1.70
2018-07-24T14:32:51.216Z,1.80
2018-07-24T14:34:55.706Z,2.05
2018-07-24T14:37:01.149Z,2.35
2018-07-24T14:39:10.396Z,4.08
2018-07-24T14:41:14.939Z,2.12
2018-07-24T14:43:19.641Z,2.37
2018-07-24T14:45:25.194Z,3.05
2018-07-24T14:47:29.806Z,1.90
2018-07-24T14:49:35.038Z,1.87
2018-07-24T14:51:40.434Z,1.72
2018-07-24T14:53:44.949Z,1.80
2018-07-24T14:55:49.440Z,1.82
2018-07-24T14:57:54.323Z,1.70
2018-07-24T14:59:59.277Z,1.70
2018-07-24T15:02:03.883Z,3.05
2018-07-24T15:04:09.023Z,2.30
2018-07-24T15:06:13.543Z,1.82
2018-07-24T15:08:18.145Z,1.85
2018-07-24T15:10:22.426Z,2.58
2018-07-24T15:12:26.882Z,1.70
2018-07-24T15:14:31.391Z,1.90
2018-07-24T15:16:35.875Z,1.98
2018-07-24T15:18:41.121Z,2.15
2018-07-24T15:20:45.674Z,3.87
2018-07-24T15:22:50.148Z,4.17
2018-07-24T15:24:54.607Z,3.40
2018-07-24T15:26:59.066Z,1.77
2018-07-24T15:29:03.543Z,2.22
2018-07-24T15:31:08.034Z,2.40
2018-07-24T15:33:12.471Z,3.23
2018-07-24T15:35:17.066Z,2.07
2018-07-24T15:37:21.735Z,3.25
2018-07-24T15:39:28.029Z,2.40
2018-07-24T15:41:32.467Z,3.07
2018-07-24T15:43:36.910Z,1.80
2018-07-24T15:45:41.639Z,1.90
2018-07-24T15:47:46.110Z,2.47
2018-07-24T15:49:50.596Z,2.13
2018-07-24T15:51:55.114Z,2.87
2018-07-24T15:53:59.714Z,2.00
2018-07-24T15:56:04.577Z,2.45
2018-07-24T15:58:09.442Z,1.90
2018-07-24T16:00:14.046Z,2.00
2018-07-24T16:02:18.862Z,2.10
2018-07-24T16:04:23.335Z,7.87
2018-07-24T16:06:28.036Z,1.87
2018-07-24T16:08:32.823Z,2.00
2018-07-24T16:10:37.702Z,2.25
2018-07-24T16:12:43.098Z,2.35
2018-07-24T16:14:47.603Z,1.87
2018-07-24T16:16:52.066Z,2.10
2018-07-24T16:18:57.000Z,2.73
2018-07-24T16:21:01.829Z,1.92
2018-07-24T16:23:06.446Z,2.12
2018-07-24T16:25:11.630Z,2.17
2018-07-24T16:27:16.387Z,2.33
2018-07-24T16:29:20.987Z,2.27
2018-07-24T16:31:27.053Z,3.20
2018-07-24T16:33:31.943Z,2.10
2018-07-24T16:35:36.597Z,2.33
2018-07-24T16:37:41.425Z,2.75
2018-07-24T16:39:45.877Z,2.77
2018-07-24T16:41:50.381Z,2.17
2018-07-24T16:43:54.825Z,2.60
2018-07-24T16:45:59.322Z,2.20
2018-07-24T16:48:03.875Z,2.10
2018-07-24T16:50:08.414Z,2.14
2018-07-24T16:52:12.989Z,5.27
2018-07-24T16:54:17.455Z,2.03
2018-07-24T16:56:21.928Z,2.63
2018-07-24T16:58:26.385Z,2.33
2018-07-24T17:00:30.843Z,2.20
2018-07-24T17:02:35.348Z,3.15
2018-07-24T17:04:39.787Z,3.60
2018-07-24T17:06:44.268Z,2.45
2018-07-24T17:08:48.826Z,2.58
2018-07-24T17:10:53.540Z,2.60
2018-07-24T17:12:58.254Z,2.20
2018-07-24T17:15:03.971Z,2.47
2018-07-24T17:17:09.397Z,2.50
2018-07-24T17:19:13.939Z,2.93
2018-07-24T17:21:18.895Z,2.30
2018-07-24T17:23:24.044Z,3.95
2018-07-24T17:25:28.491Z,2.24
2018-07-24T17:27:33.187Z,3.25
2018-07-24T17:29:37.650Z,2.37
2018-07-24T17:31:42.297Z,7.47
2018-07-24T17:33:46.737Z,4.33
2018-07-24T17:35:51.205Z,3.05
2018-07-24T17:37:55.675Z,2.73
2018-07-24T17:40:00.151Z,2.87
2018-07-24T17:42:04.586Z,6.28
2018-07-24T17:44:09.286Z,3.94
2018-07-24T17:46:14.255Z,2.42
2018-07-24T17:48:18.713Z,2.95
2018-07-24T17:50:23.191Z,4.73
2018-07-24T17:52:27.634Z,3.37
2018-07-24T17:54:32.090Z,2.60
2018-07-24T17:56:36.631Z,2.83
2018-07-24T17:58:41.827Z,2.90
2018-07-24T18:00:46.013Z,3.58
2018-07-24T18:02:50.477Z,7.78
2018-07-24T18:04:54.670Z,3.36
2018-07-24T18:06:59.186Z,3.37
2018-07-24T18:09:04.326Z,2.72
2018-07-24T18:11:08.910Z,2.30
2018-07-24T18:13:13.320Z,2.57
2018-07-24T18:15:17.861Z,3.70
2018-07-24T18:17:22.331Z,3.50
2018-07-24T18:19:26.766Z,4.40
2018-07-24T18:21:31.283Z,3.40
2018-07-24T18:23:35.796Z,2.42
2018-07-24T18:25:40.339Z,2.50
2018-07-24T18:27:44.880Z,3.43
2018-07-24T18:29:49.295Z,2.83
2018-07-24T18:31:53.523Z,2.60
2018-07-24T18:33:57.754Z,2.50
2018-07-24T18:36:02.184Z,2.75
2018-07-24T18:38:06.783Z,4.33
2018-07-24T18:40:11.743Z,4.43
2018-07-24T18:42:16.202Z,3.00
2018-07-24T18:44:21.088Z,2.72
2018-07-24T18:46:25.643Z,2.37
2018-07-24T18:48:30.115Z,2.70
2018-07-24T18:50:34.616Z,2.50
2018-07-24T18:52:39.870Z,4.00
2018-07-24T18:54:44.614Z,3.75
2018-07-24T18:56:52.644Z,2.90
2018-07-24T18:58:57.535Z,2.33
2018-07-24T19:01:02.216Z,2.67
2018-07-24T19:03:08.154Z,4.73
2018-07-24T19:05:12.457Z,2.50
2018-07-24T19:07:17.757Z,2.65
2018-07-24T19:09:22.950Z,3.65
2018-07-24T19:11:27.399Z,4.47
2018-07-24T19:13:31.922Z,2.63
2018-07-24T19:15:36.734Z,2.80
2018-07-24T19:17:41.074Z,2.62
2018-07-24T19:19:46.233Z,2.60
2018-07-24T19:21:50.722Z,3.72
2018-07-24T19:23:55.303Z,3.03
2018-07-24T19:26:00.441Z,2.70
2018-07-24T19:28:05.271Z,3.83
2018-07-24T19:30:10.023Z,3.20
2018-07-24T19:32:14.914Z,2.98
2018-07-24T19:34:19.615Z,4.95
2018-07-24T19:36:24.534Z,2.77
2018-07-24T19:38:29.633Z,3.33
2018-07-24T19:40:34.051Z,4.13
2018-07-24T19:42:42.167Z,3.50
2018-07-24T19:44:46.834Z,3.40
2018-07-24T19:46:52.850Z,3.00
2018-07-24T19:48:57.334Z,2.75
2018-07-24T19:51:01.905Z,3.00
2018-07-24T19:53:06.627Z,2.80
2018-07-24T19:55:11.695Z,5.15
2018-07-24T19:57:16.203Z,3.53
2018-07-24T19:59:20.839Z,3.20
2018-07-24T20:01:25.698Z,3.57
2018-07-24T20:03:30.258Z,2.92
2018-07-24T20:05:34.727Z,4.50
2018-07-24T20:07:39.766Z,3.33
2018-07-24T20:09:44.538Z,3.60
2018-07-24T20:11:50.424Z,2.80
2018-07-24T20:13:55.864Z,3.67
2018-07-24T20:16:00.374Z,4.10
2018-07-24T20:18:04.960Z,4.80
2018-07-24T20:20:09.762Z,4.05
2018-07-24T20:22:15.646Z,2.90
2018-07-24T20:24:20.112Z,2.95
2018-07-24T20:26:25.353Z,3.08
2018-07-24T20:28:29.843Z,4.50
2018-07-24T20:30:34.773Z,3.13
2018-07-24T20:32:39.677Z,6.02
2018-07-24T20:34:44.099Z,3.10
2018-07-24T20:36:49.371Z,2.80
2018-07-24T20:38:54.035Z,2.77
2018-07-24T20:40:59.254Z,3.26
2018-07-24T20:43:04.088Z,3.40
2018-07-24T20:45:08.680Z,3.30
2018-07-24T20:47:15.192Z,3.42
2018-07-24T20:49:20.286Z,3.60
2018-07-24T20:51:24.748Z,3.47
2018-07-24T20:53:29.183Z,3.85
2018-07-24T20:55:33.663Z,3.40
2018-07-24T20:57:39.234Z,2.70
2018-07-24T20:59:43.782Z,3.00
2018-07-24T21:01:48.282Z,3.10
2018-07-24T21:03:52.797Z,5.47
2018-07-24T21:05:57.367Z,3.12
2018-07-24T21:08:01.831Z,3.22
2018-07-24T21:10:10.740Z,3.02
2018-07-24T21:12:15.519Z,3.35
2018-07-24T21:14:20.055Z,3.35
2018-07-24T21:16:24.683Z,3.10
2018-07-24T21:18:29.356Z,5.10
2018-07-24T21:20:33.878Z,3.47
2018-07-24T21:22:38.378Z,3.03
2018-07-24T21:24:42.879Z,3.40
2018-07-24T21:26:47.397Z,3.87
2018-07-24T21:28:51.827Z,2.90
2018-07-24T21:30:56.357Z,4.28
2018-07-24T21:33:00.793Z,4.83
2018-07-24T21:35:05.333Z,3.77
2018-07-24T21:37:09.498Z,3.90
2018-07-24T21:39:14.007Z,4.57
2018-07-24T21:41:18.454Z,4.10
2018-07-24T21:43:23.468Z,5.10
2018-07-24T21:45:28.105Z,3.35
2018-07-24T21:47:32.590Z,6.33
2018-07-24T21:49:37.067Z,3.60
2018-07-24T21:51:41.574Z,3.80
2018-07-24T21:53:46.810Z,4.70
2018-07-24T21:55:51.171Z,4.75
2018-07-24T21:57:55.695Z,3.63
2018-07-24T22:00:00.152Z,4.10
2018-07-24T22:02:04.691Z,4.03
2018-07-24T22:04:09.754Z,4.50
2018-07-24T22:06:14.311Z,3.60
2018-07-24T22:08:19.910Z,3.70
2018-07-24T22:10:24.451Z,4.03
2018-07-24T22:12:28.898Z,4.03
2018-07-24T22:14:33.530Z,3.42
2018-07-24T22:16:37.739Z,4.95
2018-07-24T22:18:42.181Z,3.93
2018-07-24T22:20:46.959Z,4.78
2018-07-24T22:22:51.982Z,3.75
2018-07-24T22:24:56.208Z,3.80
2018-07-24T22:27:00.638Z,6.17
2018-07-24T22:29:11.953Z,3.75
2018-07-24T22:31:20.184Z,3.70
2018-07-24T22:33:28.527Z,3.90
2018-07-24T22:35:35.550Z,3.95
2018-07-24T22:37:42.295Z,3.70
2018-07-24T22:39:46.805Z,4.00
2018-07-24T22:41:51.343Z,4.62
2018-07-24T22:43:56.471Z,5.07
2018-07-24T22:46:00.963Z,4.27
2018-07-24T22:48:05.490Z,4.23
2018-07-24T22:50:10.021Z,3.58
2018-07-24T22:52:14.487Z,4.10
2018-07-24T22:54:21.017Z,3.77
2018-07-24T22:56:25.458Z,4.90
2018-07-24T22:58:29.865Z,3.60
2018-07-24T23:00:34.326Z,3.98
2018-07-24T23:02:38.708Z,4.03
2018-07-24T23:04:43.140Z,4.20
2018-07-24T23:06:47.602Z,3.90
2018-07-24T23:08:52.072Z,4.25
2018-07-24T23:10:56.692Z,3.90
2018-07-24T23:13:02.430Z,4.60
2018-07-24T23:15:07.813Z,4.43
2018-07-24T23:17:12.254Z,4.73
2018-07-24T23:19:16.729Z,6.47
2018-07-24T23:21:21.196Z,3.80
2018-07-24T23:23:25.696Z,7.15
2018-07-24T23:25:30.105Z,4.67
2018-07-24T23:27:34.588Z,4.05
2018-07-24T23:29:39.266Z,4.17
2018-07-24T23:31:43.702Z,3.90
2018-07-24T23:33:48.154Z,4.13
2018-07-24T23:35:52.658Z,4.07
2018-07-24T23:37:57.163Z,4.28
2018-07-24T23:40:01.691Z,4.37
2018-07-24T23:42:06.162Z,3.92
2018-07-24T23:44:10.658Z,4.20
2018-07-24T23:46:15.150Z,4.53
2018-07-24T23:48:19.634Z,4.43
2018-07-24T23:50:24.172Z,4.50
2018-07-24T23:52:28.622Z,4.73
2018-07-24T23:54:33.082Z,5.10
2018-07-24T23:56:37.538Z,4.50
2018-07-24T23:58:42.070Z,4.87
